Stanley, NM (87056)

17:38 MDT le 06 mai 2015 (GMT -0600)
Rural Stanley | | Change Station
CLOSE
Current Station
Stations météorologiques personnelles
Location: New Mexico, NM
Altitude: 6414 ft
Stations météo à proximité

Alt. 6414 ft 35.13 °N, 106.11 °W | Updated 1 minute ago

Partiellement nuageux
Partiellement nuageux
63.7 ° F
Paraît 63.7 ° F
N
16.1
Vent Variable Vent de Ouest
Gusts 16.1 mph

Aujourd'hui
Haut(e) -- | Bas -- ° F
--% Risque de précip.
Hier
Haut(e) -- | Bas -- ° F
Precip. -- pouce
6:07 AM 7:53 PM
Lune gibbeuse décroissante, 92% visible
Pression 29.91 pouce
Visibilité 10.0 Miles terrestres
Nuages Ciel dégagé
Point de rosée 37 ° F
Humidité 37%
Précipitations 0.00 pouce
Profondeur de la couche neigeuse Non disponible.
UV 2.2 sur 12
Pollen 6.10 sur 12
Qualité de l'air Non disponible.
Flu Activity Local Activity
METAR K0E0 062315Z AUTO 24013KT 10SM CLR 18/M02 A2991 RMK AO2 T01801017

More Conditions Fewer Conditions

Pression 29.91 pouce
Visibilité 10.0 Miles terrestres
Nuages Ciel dégagé
Point de rosée 37 ° F
Humidité 37%
Précipitations 0.00 pouce
Profondeur de la couche neigeuse Non disponible.
UV 2.2 sur 12
Pollen 6.10 sur 12
Qualité de l'air Non disponible.
Flu Activity Local Activity
METAR K0E0 062315Z AUTO 24013KT 10SM CLR 18/M02 A2991 RMK AO2 T01801017

More Conditions Fewer Conditions

10-Day Weather Forecast

Almanac

Astronomie

May. 06, 2015 Lever Coucher
Temps réel
Crépuscule civil
Crépuscule nautique
Crépuscule astronomique
Lune
Durée de lumière visible
Longueur du jour
Tomorrow will be .
, % of the Moon is Illuminated

Extrêmes aujourd'hui

State Highs State Lows

Community

WunderPhotos

Upload Photos

1,819,042 Photos téléchargées !

WunderBlogs® & News

Nearby

Qualité de l'air

  Qualité de l'air Indice de la qualité de l'air Polluant
Not available.

Épaisseur de neige

Station Depth Altitude

Activité sismique

Ville Distance Mag. Time & Date
Minimum magnitude displayed is 2.5.

Températures des eaux côtières

Lieu Température

Stations

Stations météo à proximité

Emplacement de la station Température Refroidissement éolien Point de rosée Humidité Vent Precip. Alt. Mise à jour Type